Time;durP1;ratioP1;P1;durP2;ratioP2;P2;SDS_P1;SDS_P2;PMS_P1;PMS_P2;Temp;Humidity;BMP_temperature;BMP_pressure;BME280_temperature;BME280_humidity;BME280_pressure;Samples;Min_cycle;Max_cycle;Signal;HPM_P1;HPM_P2
2022/02/03 00:01:14;;;;;;;22.50;8.90;;;;;;;0.98;77.33;98584.41;106208;1274;111357;-71
2022/02/03 00:04:03;;;;;;;22.60;9.10;;;;;;;0.96;77.39;98589.71;106188;1274;97956;-72
2022/02/03 00:06:55;;;;;;;20.80;8.20;;;;;;;0.95;77.41;98600.77;106156;1272;106925;-71
2022/02/03 00:24:12;;;;;;;22.00;9.40;;;;;;;0.96;77.33;98631.98;106026;1273;97885;-71
2022/02/03 00:27:08;;;;;;;23.50;9.90;;;;;;;0.93;77.27;98634.17;106263;1274;97871;-70
2022/02/03 00:30:02;;;;;;;21.30;7.80;;;;;;;0.92;77.35;98638.42;106177;1274;111415;-71
2022/02/03 00:48:59;;;;;;;21.10;7.40;;;;;;;0.91;77.09;98681.23;106104;1274;107738;-70
2022/02/03 00:51:33;;;;;;;17.10;6.80;;;;;;;0.91;77.18;98682.63;106084;1274;96714;-70
2022/02/03 00:54:09;;;;;;;17.50;6.60;;;;;;;0.87;77.19;98680.84;106232;1274;95261;-71
2022/02/03 00:57:05;;;;;;;18.70;6.50;;;;;;;0.86;77.04;98692.05;106211;1274;113068;-70
2022/02/03 01:00:16;;;;;;;18.20;6.00;;;;;;;0.84;77.06;98698.09;106139;1274;98009;-70
2022/02/03 01:03:03;;;;;;;17.20;6.10;;;;;;;0.79;76.71;98699.16;106077;1274;108607;-70
2022/02/03 01:05:39;;;;;;;17.00;6.00;;;;;;;0.76;76.86;98702.05;105981;1274;97086;-69
2022/02/03 01:08:16;;;;;;;19.40;6.30;;;;;;;0.74;76.94;98706.14;106167;1274;97917;-67
2022/02/03 01:11:45;;;;;;;17.10;6.00;;;;;;;0.72;76.72;98706.55;106138;1274;111587;-70
2022/02/03 01:14:04;;;;;;;16.90;5.80;;;;;;;0.71;77.00;98704.84;106059;1276;95569;-70
2022/02/03 01:19:33;;;;;;;16.10;6.00;;;;;;;0.67;76.74;98709.54;106008;1275;95269;-70
2022/02/03 01:33:42;;;;;;;15.20;5.90;;;;;;;0.60;76.67;98716.10;106175;1273;98011;-70
2022/02/03 01:45:18;;;;;;;16.50;5.80;;;;;;;0.53;76.58;98721.61;105923;1274;107762;-73
2022/02/03 01:53:58;;;;;;;25.70;9.70;;;;;;;0.47;76.50;98725.12;106144;1274;112400;-72
2022/02/03 01:56:51;;;;;;;28.80;10.60;;;;;;;0.45;76.73;98727.45;106266;1274;97983;-73
2022/02/03 01:59:25;;;;;;;27.40;11.20;;;;;;;0.43;76.60;98726.64;106209;1274;108500;-72
2022/02/03 02:02:05;;;;;;;28.30;10.10;;;;;;;0.40;76.52;98731.13;106065;1274;97882;-72
2022/02/03 02:05:05;;;;;;;19.20;7.20;;;;;;;0.38;76.47;98733.66;106241;1273;97838;-70
2022/02/03 02:08:09;;;;;;;22.50;7.50;;;;;;;0.34;76.50;98734.15;106206;1274;111412;-71
2022/02/03 02:11:24;;;;;;;23.40;8.20;;;;;;;0.31;76.57;98739.66;106030;1274;96910;-70
2022/02/03 02:14:36;;;;;;;22.60;8.10;;;;;;;0.28;76.54;98741.83;105996;1277;107693;-70
2022/02/03 02:40:06;;;;;;;21.20;7.40;;;;;;;0.18;76.34;98767.85;106050;1274;97941;-71
2022/02/03 02:42:57;;;;;;;17.40;6.20;;;;;;;0.17;76.13;98771.04;106140;1274;107804;-72
2022/02/03 02:46:20;;;;;;;19.10;6.60;;;;;;;0.14;76.12;98774.77;106165;1274;97895;-71
2022/02/03 02:49:15;;;;;;;18.70;7.00;;;;;;;0.13;76.05;98782.66;106008;1276;98047;-72
2022/02/03 02:52:02;;;;;;;20.30;7.10;;;;;;;0.14;76.21;98796.94;106039;1274;111522;-69
2022/02/03 03:35:49;;;;;;;18.90;6.50;;;;;;;0.11;75.99;98874.80;106060;1274;112321;-70
2022/02/03 03:38:02;;;;;;;20.70;6.20;;;;;;;0.12;75.89;98877.73;106049;1274;97953;-72
2022/02/03 03:40:35;;;;;;;17.00;6.50;;;;;;;0.14;75.98;98888.31;106070;1274;107776;-71
2022/02/03 03:43:14;;;;;;;18.10;6.10;;;;;;;0.15;75.90;98892.98;106072;1275;97878;-72
2022/02/03 03:45:52;;;;;;;16.20;6.20;;;;;;;0.16;75.91;98903.41;106020;1274;95214;-71
2022/02/03 03:48:34;;;;;;;17.30;6.00;;;;;;;0.17;75.88;98905.98;106052;1276;112331;-71
2022/02/03 03:51:09;;;;;;;22.00;7.10;;;;;;;0.18;75.77;98909.79;106242;1274;97868;-70
2022/02/03 03:53:58;;;;;;;20.20;7.00;;;;;;;0.19;75.82;98917.61;106120;1274;109093;-70
2022/02/03 03:56:53;;;;;;;18.10;5.90;;;;;;;0.19;75.73;98920.77;106046;1274;98005;-69
2022/02/03 04:56:51;;;;;;;15.50;4.90;;;;;;;0.05;75.45;99010.48;106163;1274;97867;-70
2022/02/03 05:02:45;;;;;;;13.30;5.00;;;;;;;0.03;75.26;99034.59;106207;1274;111436;-68
2022/02/03 05:12:09;;;;;;;14.70;4.60;;;;;;;-0.05;75.25;99056.46;105939;1280;97934;-71
2022/02/03 05:26:35;;;;;;;12.20;4.00;;;;;;;-0.06;75.14;99070.24;106195;1274;98027;-74
2022/02/03 06:04:54;;;;;;;10.60;4.60;;;;;;;-0.13;74.95;99132.31;106192;1274;96336;-71
2022/02/03 06:15:17;;;;;;;16.90;5.90;;;;;;;-0.16;74.91;99147.39;106124;1274;112289;-72
2022/02/03 06:29:20;;;;;;;12.70;5.10;;;;;;;-0.13;74.85;99172.23;106075;1274;111417;-71
2022/02/03 06:31:52;;;;;;;14.90;5.00;;;;;;;-0.13;74.81;99174.70;106076;1275;97924;-72
2022/02/03 06:34:25;;;;;;;17.00;6.00;;;;;;;-0.14;74.81;99174.54;106163;1274;107735;-75
2022/02/03 06:36:57;;;;;;;12.80;4.90;;;;;;;-0.14;74.75;99178.90;106104;1276;95275;-70
2022/02/03 06:39:31;;;;;;;14.90;5.80;;;;;;;-0.17;74.82;99182.11;106170;1274;95201;-71
2022/02/03 06:42:06;;;;;;;15.50;5.40;;;;;;;-0.19;74.82;99185.64;106039;1274;111515;-71
2022/02/03 06:44:44;;;;;;;14.80;5.40;;;;;;;-0.20;74.61;99184.29;106065;1275;99068;-71
2022/02/03 06:52:47;;;;;;;16.20;5.60;;;;;;;-0.19;74.68;99199.94;106176;1274;97787;-70
2022/02/03 06:55:39;;;;;;;18.60;5.60;;;;;;;-0.20;74.62;99205.37;106068;1275;111301;-72
2022/02/03 06:58:22;;;;;;;16.00;5.50;;;;;;;-0.19;74.68;99208.48;106111;1274;97875;-73
2022/02/03 07:01:00;;;;;;;15.60;5.30;;;;;;;-0.18;74.68;99212.81;106227;1274;106152;-71
2022/02/03 07:03:34;;;;;;;14.30;5.40;;;;;;;-0.19;74.43;99213.18;105938;1276;97860;-70
2022/02/03 07:06:02;;;;;;;17.80;7.30;;;;;;;-0.20;74.55;99214.77;106157;1274;95849;-72
2022/02/03 07:08:32;;;;;;;16.30;5.50;;;;;;;-0.20;74.70;99218.10;106157;1274;111159;-73
2022/02/03 07:11:19;;;;;;;16.50;6.40;;;;;;;-0.20;74.40;99219.33;106220;1274;97836;-72
2022/02/03 07:13:51;;;;;;;15.90;5.90;;;;;;;-0.20;74.57;99219.48;106268;1274;107670;-72
2022/02/03 07:16:19;;;;;;;15.60;5.90;;;;;;;-0.20;74.49;99221.76;106213;1274;95178;-72
2022/02/03 07:18:46;;;;;;;19.90;7.10;;;;;;;-0.20;74.52;99227.15;106223;1273;97862;-73
2022/02/03 07:21:14;;;;;;;19.20;6.70;;;;;;;-0.21;74.47;99229.10;106210;1274;111426;-72
2022/02/03 07:23:42;;;;;;;21.90;7.70;;;;;;;-0.22;74.62;99231.05;106125;1274;98934;-70
2022/02/03 07:26:10;;;;;;;18.00;6.70;;;;;;;-0.21;74.71;99231.35;106053;1274;108590;-69
2022/02/03 07:28:38;;;;;;;21.00;7.40;;;;;;;-0.22;74.53;99226.70;106052;1274;97963;-71
2022/02/03 07:31:07;;;;;;;17.60;7.00;;;;;;;-0.20;74.46;99232.05;106040;1274;96316;-73
2022/02/03 07:33:39;;;;;;;18.30;6.20;;;;;;;-0.17;74.56;99228.11;105975;1274;111476;-72
2022/02/03 07:36:08;;;;;;;17.40;6.30;;;;;;;-0.15;74.73;99224.08;106120;1274;97979;-73
2022/02/03 07:38:40;;;;;;;18.80;6.40;;;;;;;-0.11;74.76;99228.14;106031;1274;107745;-71
2022/02/03 07:41:09;;;;;;;19.20;7.30;;;;;;;-0.05;74.70;99235.49;105966;1277;97979;-71
2022/02/03 07:43:37;;;;;;;20.80;7.00;;;;;;;-0.00;74.64;99240.06;106135;1274;95195;-69
2022/02/03 07:46:09;;;;;;;20.00;6.90;;;;;;;0.02;74.58;99242.11;106102;1274;111416;-70
2022/02/03 07:48:36;;;;;;;19.70;7.90;;;;;;;0.06;74.62;99244.62;106062;1274;97936;-71
2022/02/03 07:51:04;;;;;;;19.90;7.50;;;;;;;0.10;74.58;99248.36;106048;1274;108488;-71
2022/02/03 07:53:32;;;;;;;17.30;6.60;;;;;;;0.13;74.54;99244.59;106105;1274;95295;-72
2022/02/03 07:56:00;;;;;;;18.90;7.00;;;;;;;0.18;74.58;99243.44;106066;1274;97899;-71
2022/02/03 07:58:28;;;;;;;19.60;8.20;;;;;;;0.23;74.53;99248.00;106194;1274;111599;-70
2022/02/03 08:00:56;;;;;;;19.30;7.20;;;;;;;0.27;74.64;99247.70;106188;1274;95194;-72
2022/02/03 08:03:28;;;;;;;20.70;7.60;;;;;;;0.29;74.49;99247.83;106040;1274;105821;-72
2022/02/03 08:06:01;;;;;;;19.10;7.20;;;;;;;0.31;74.52;99248.13;106027;1274;97329;-71
2022/02/03 08:08:38;;;;;;;21.60;7.70;;;;;;;0.30;74.50;99248.48;106113;1274;97937;-72
2022/02/03 08:11:14;;;;;;;23.70;8.50;;;;;;;0.34;74.47;99247.19;106033;1274;110290;-71
2022/02/03 08:13:59;;;;;;;24.10;9.60;;;;;;;0.33;74.42;99252.27;106162;1274;97718;-72
2022/02/03 08:16:33;;;;;;;23.80;9.10;;;;;;;0.34;74.45;99256.08;106115;1274;105677;-71
2022/02/03 08:19:10;;;;;;;22.40;9.40;;;;;;;0.36;74.54;99263.35;106169;1274;97944;-72
2022/02/03 08:21:45;;;;;;;27.70;10.90;;;;;;;0.44;74.67;99262.93;106141;1274;97872;-72
2022/02/03 08:24:24;;;;;;;23.10;9.20;;;;;;;0.52;74.64;99254.52;106163;1274;110471;-72
2022/02/03 08:32:16;;;;;;;23.30;9.80;;;;;;;0.64;74.45;99254.52;106158;1274;96663;-71
2022/02/03 08:37:43;;;;;;;27.90;12.30;;;;;;;0.74;74.66;99252.14;106205;1274;110412;-71
2022/02/03 08:40:31;;;;;;;28.10;12.30;;;;;;;0.80;74.63;99248.12;106214;1274;95274;-72
2022/02/03 08:42:59;;;;;;;27.50;12.70;;;;;;;0.87;74.61;99244.60;106065;1274;107862;-72
2022/02/03 08:45:27;;;;;;;29.80;12.70;;;;;;;0.91;74.41;99243.77;106200;1274;98007;-72
2022/02/03 08:48:00;;;;;;;27.10;10.40;;;;;;;1.02;74.62;99237.52;106161;1274;95357;-73
2022/02/03 08:50:28;;;;;;;27.90;11.30;;;;;;;1.10;74.54;99235.88;106114;1274;110546;-72
2022/02/03 08:53:10;;;;;;;28.30;12.70;;;;;;;1.14;74.47;99239.94;106125;1274;97976;-72
2022/02/03 09:50:16;;;;;;;22.20;8.80;;;;;;;1.04;74.38;99281.29;106101;1274;111476;-71
2022/02/03 09:51:32;;;;;;;18.70;7.50;;;;;;;1.02;74.23;99286.05;106013;1274;105661;-68
2022/02/03 09:56:37;;;;;;;20.30;8.20;;;;;;;1.01;74.24;99281.05;106056;1274;96661;-70
2022/02/03 10:01:45;;;;;;;21.00;8.50;;;;;;;1.08;74.34;99280.48;106087;1274;98682;-71
2022/02/03 10:04:18;;;;;;;21.80;9.60;;;;;;;1.12;74.39;99277.21;105935;1274;109484;-71
2022/02/03 10:06:58;;;;;;;20.00;8.30;;;;;;;1.18;74.57;99278.78;106000;1274;97946;-72
2022/02/03 10:09:41;;;;;;;18.30;7.80;;;;;;;1.25;74.43;99282.59;106002;1274;97960;-71
2022/02/03 10:12:10;;;;;;;17.90;8.00;;;;;;;1.32;74.41;99279.39;106095;1274;111571;-73
2022/02/03 10:14:41;;;;;;;21.20;9.10;;;;;;;1.36;74.43;99278.20;106085;1274;97880;-71
2022/02/03 10:17:11;;;;;;;23.10;10.00;;;;;;;1.37;74.23;99275.05;106047;1275;106979;-72
2022/02/03 10:19:45;;;;;;;23.30;9.00;;;;;;;1.31;73.98;99275.94;106120;1274;97912;-72
2022/02/03 10:22:20;;;;;;;22.50;8.60;;;;;;;1.29;74.17;99277.56;106127;1274;95904;-72
2022/02/03 10:24:52;;;;;;;17.90;7.80;;;;;;;1.28;74.10;99271.13;106153;1274;113214;-71
2022/02/03 10:27:27;;;;;;;18.90;8.10;;;;;;;1.27;74.11;99273.26;106122;1274;97876;-71
2022/02/03 10:30:22;;;;;;;22.50;9.40;;;;;;;1.27;74.20;99275.70;106144;1274;107534;-72
2022/02/03 10:32:53;;;;;;;20.50;8.90;;;;;;;1.26;74.18;99280.98;106020;1274;97943;-71
2022/02/03 11:02:09;;;;;;;21.40;7.90;;;;;;;1.47;73.74;99276.28;106124;1274;95799;-71
2022/02/03 11:12:57;;;;;;;;;;;;;;;1.44;72.47;99274.98;106064;1274;97963;-71
2022/02/03 11:15:29;;;;;;;18.20;7.60;;;;;;;1.39;72.96;99273.77;106131;1274;95875;-72
2022/02/03 11:18:00;;;;;;;20.00;7.90;;;;;;;1.39;72.73;99270.63;106187;1274;112291;-72
2022/02/03 11:20:32;;;;;;;19.80;7.30;;;;;;;1.36;73.17;99268.61;106137;1275;97917;-71
2022/02/03 11:23:15;;;;;;;17.20;6.30;;;;;;;1.39;73.24;99267.81;106126;1274;107729;-72
2022/02/03 11:33:52;;;;;;;19.10;6.80;;;;;;;1.39;72.92;99264.85;106206;1274;95293;-71
2022/02/03 11:42:20;;;;;;;15.80;6.10;;;;;;;1.46;72.54;99266.85;106187;1274;97876;-72
2022/02/03 12:02:09;;;;;;;10.70;4.70;;;;;;;1.95;72.87;99253.23;106055;1275;98006;-70
2022/02/03 12:05:05;;;;;;;12.90;5.40;;;;;;;1.94;72.73;99256.40;106166;1274;109224;-71
2022/02/03 12:11:02;;;;;;;14.10;5.50;;;;;;;1.85;72.13;99254.61;106102;1274;96439;-71
2022/02/03 12:16:29;;;;;;;15.40;5.40;;;;;;;1.77;72.12;99265.36;106186;1274;97957;-72
2022/02/03 12:21:47;;;;;;;15.40;5.30;;;;;;;1.66;72.35;99262.74;106159;1274;96313;-71
2022/02/03 12:28:14;;;;;;;13.50;5.30;;;;;;;1.63;71.51;99258.46;106111;1274;111394;-71
2022/02/03 12:30:24;;;;;;;14.60;5.90;;;;;;;1.63;72.10;99260.22;106045;1274;96067;-70
2022/02/03 12:38:36;;;;;;;15.50;5.60;;;;;;;1.55;72.14;99255.60;105941;1274;95931;-70
2022/02/03 12:41:12;;;;;;;14.40;5.40;;;;;;;1.57;72.03;99256.39;105940;1274;110036;-71
2022/02/03 12:44:01;;;;;;;11.40;4.90;;;;;;;1.57;71.89;99256.73;106039;1274;97970;-71
2022/02/03 12:46:31;;;;;;;12.00;4.50;;;;;;;1.57;71.71;99255.55;106039;1277;107748;-70
2022/02/03 12:49:01;;;;;;;14.90;5.10;;;;;;;1.58;71.77;99252.35;106103;1274;97964;-69
2022/02/03 12:51:30;;;;;;;13.40;5.00;;;;;;;1.63;71.67;99255.70;106077;1274;97848;-71
2022/02/03 12:54:16;;;;;;;12.60;5.00;;;;;;;1.69;72.22;99260.23;106055;1274;111508;-69
2022/02/03 12:56:44;;;;;;;18.30;7.00;;;;;;;1.74;72.03;99255.66;106093;1274;97911;-71
2022/02/03 12:59:15;;;;;;;15.70;6.10;;;;;;;1.79;72.02;99254.30;106024;1274;107746;-70
2022/02/03 13:01:46;;;;;;;16.80;5.80;;;;;;;1.84;71.97;99256.92;105970;1274;97982;-70
2022/02/03 13:04:17;;;;;;;16.40;6.10;;;;;;;1.86;72.05;99258.08;106021;1274;97870;-69
2022/02/03 13:07:00;;;;;;;16.70;6.20;;;;;;;1.88;71.93;99259.05;106141;1274;112134;-69
2022/02/03 13:09:51;;;;;;;18.20;6.50;;;;;;;1.89;71.84;99253.23;106105;1274;97950;-71
2022/02/03 13:12:31;;;;;;;17.40;5.80;;;;;;;1.85;71.48;99255.67;106062;1274;107829;-70
2022/02/03 13:15:03;;;;;;;16.20;5.90;;;;;;;1.83;71.63;99253.44;106084;1274;97984;-71
2022/02/03 13:17:36;;;;;;;13.10;5.40;;;;;;;1.81;71.76;99253.34;106131;1274;97851;-71
2022/02/03 13:20:16;;;;;;;13.50;5.40;;;;;;;1.82;71.29;99250.35;106107;1274;111406;-71
2022/02/03 13:22:59;;;;;;;14.90;6.30;;;;;;;1.83;71.54;99243.48;106138;1274;97964;-70
2022/02/03 13:25:34;;;;;;;13.00;5.30;;;;;;;1.82;71.42;99243.17;105986;1274;108453;-70
2022/02/03 13:28:33;;;;;;;17.40;6.80;;;;;;;1.78;71.20;99241.74;106136;1274;97861;-69
2022/02/03 13:31:15;;;;;;;18.40;7.00;;;;;;;1.72;71.07;99240.35;106175;1274;96452;-69
2022/02/03 13:33:55;;;;;;;19.00;7.40;;;;;;;1.68;71.04;99237.67;105841;1274;111477;-69
2022/02/03 13:36:32;;;;;;;20.80;8.30;;;;;;;1.68;71.17;99239.27;105979;1274;98602;-70
2022/02/03 13:39:09;;;;;;;17.00;6.70;;;;;;;1.69;71.10;99239.05;105957;1274;107700;-69
2022/02/03 13:41:41;;;;;;;19.40;7.70;;;;;;;1.72;71.10;99239.83;105857;1274;98020;-70
2022/02/03 13:44:17;;;;;;;21.60;8.00;;;;;;;1.74;71.07;99235.38;105872;1274;96429;-70
2022/02/03 13:46:48;;;;;;;19.80;7.10;;;;;;;1.75;71.29;99227.82;106031;1274;112072;-71
2022/02/03 13:49:20;;;;;;;22.20;8.70;;;;;;;1.76;71.10;99233.56;105982;1274;97896;-70
2022/02/03 13:52:10;;;;;;;21.90;8.30;;;;;;;1.76;71.07;99232.33;106022;1274;106833;-69
2022/02/03 13:54:59;;;;;;;18.60;7.30;;;;;;;1.79;71.04;99238.36;106018;1274;97841;-69
2022/02/03 14:12:31;;;;;;;22.40;7.10;;;;;;;1.69;70.42;99243.42;106061;1274;98064;-70
2022/02/03 14:22:58;;;;;;;21.00;7.90;;;;;;;1.66;70.78;99233.04;106025;1274;95300;-69
2022/02/03 14:28:14;;;;;;;23.20;9.70;;;;;;;1.69;70.50;99239.04;106073;1274;111572;-73
2022/02/03 14:30:46;;;;;;;22.70;7.90;;;;;;;1.65;70.42;99233.06;106115;1274;97882;-69
2022/02/03 14:33:26;;;;;;;23.50;8.60;;;;;;;1.60;70.54;99233.56;106068;1274;106699;-71
2022/02/03 14:36:18;;;;;;;23.90;9.40;;;;;;;1.58;70.56;99232.92;106088;1273;97880;-72
2022/02/03 14:41:31;;;;;;;23.80;9.30;;;;;;;1.56;70.60;99234.92;106046;1274;111563;-70
2022/02/03 14:44:00;;;;;;;20.80;8.70;;;;;;;1.57;70.63;99240.66;106076;1274;97839;-70
2022/02/03 14:46:32;;;;;;;22.30;9.00;;;;;;;1.57;70.37;99237.35;106074;1274;107781;-72
2022/02/03 14:49:00;;;;;;;21.10;8.20;;;;;;;1.57;70.46;99242.26;105996;1274;97852;-72
2022/02/03 14:51:33;;;;;;;21.20;8.50;;;;;;;1.56;70.54;99240.01;106141;1274;97893;-71
2022/02/03 14:59:22;;;;;;;19.90;7.80;;;;;;;1.53;70.68;99244.98;106112;1274;108265;-70
2022/02/03 15:01:53;;;;;;;21.20;8.80;;;;;;;1.53;70.36;99247.61;106107;1274;98058;-71
2022/02/03 15:04:28;;;;;;;22.50;9.10;;;;;;;1.52;70.39;99239.60;106091;1274;98664;-71
2022/02/03 15:07:02;;;;;;;21.20;8.50;;;;;;;1.53;70.64;99238.73;106070;1274;112086;-72
2022/02/03 15:12:10;;;;;;;22.90;9.80;;;;;;;1.49;70.24;99237.25;106103;1274;108326;-72
2022/02/03 15:14:43;;;;;;;27.60;10.00;;;;;;;1.46;70.43;99232.62;106006;1274;98066;-72
2022/02/03 15:17:13;;;;;;;27.70;11.80;;;;;;;1.45;70.24;99232.84;106028;1274;97729;-72
2022/02/03 15:19:50;;;;;;;27.30;10.40;;;;;;;1.43;70.07;99227.84;106002;1274;110175;-72
2022/02/03 15:22:21;;;;;;;26.50;11.30;;;;;;;1.38;70.16;99225.38;106097;1274;97163;-73
2022/02/03 15:24:49;;;;;;;28.70;10.90;;;;;;;1.36;70.10;99216.02;106050;1274;107744;-72
2022/02/03 15:27:19;;;;;;;25.50;11.30;;;;;;;1.38;70.28;99218.23;106113;1273;97950;-70
2022/02/03 15:29:49;;;;;;;25.90;10.90;;;;;;;1.40;70.29;99219.04;106046;1274;97996;-73
2022/02/03 15:32:18;;;;;;;25.90;11.60;;;;;;;1.44;70.43;99216.63;105345;1274;1013046;-70
2022/02/03 15:34:48;;;;;;;27.90;11.70;;;;;;;1.47;70.43;99220.73;106054;1274;97898;-71
2022/02/03 15:37:20;;;;;;;25.00;12.20;;;;;;;1.48;70.19;99214.73;106026;1274;107931;-69
2022/02/03 15:39:53;;;;;;;26.00;12.00;;;;;;;1.48;70.25;99215.27;106000;1274;97859;-71
2022/02/03 15:42:29;;;;;;;30.00;13.70;;;;;;;1.47;70.22;99219.15;106102;1274;95287;-71
2022/02/03 15:45:02;;;;;;;33.70;14.10;;;;;;;1.47;70.29;99217.23;106065;1274;111336;-68
2022/02/03 15:47:39;;;;;;;32.50;14.60;;;;;;;1.46;70.48;99212.89;105958;1274;98635;-69
2022/02/03 16:17:12;;;;;;;;;;;;;;;1.27;70.06;99190.79;106064;1276;107748;-71
2022/02/03 16:25:04;;;;;;;32.60;15.10;;;;;;;1.27;70.33;99189.73;106009;1277;111326;-70
2022/02/03 16:55:00;;;;;;;58.60;29.60;;;;;;;0.68;69.79;99183.01;105963;1276;98001;-72
2022/02/03 16:57:29;;;;;;;53.70;26.70;;;;;;;0.67;69.79;99181.84;105887;1276;108352;-70
2022/02/03 17:02:48;;;;;;;62.90;30.00;;;;;;;0.57;69.85;99175.67;105797;1276;98082;-71
2022/02/03 17:05:18;;;;;;;;;;;;;;;0.54;69.92;99173.67;105937;1276;111339;-72
2022/02/03 17:07:48;;;;;;;54.20;25.60;;;;;;;0.48;69.74;99172.10;105945;1276;98596;-72
2022/02/03 17:10:16;;;;;;;52.40;28.30;;;;;;;0.44;69.78;99173.44;105879;1276;107774;-72
2022/02/03 17:12:47;;;;;;;60.00;29.80;;;;;;;0.38;69.72;99171.36;105920;1274;95394;-73
2022/02/03 17:15:16;;;;;;;51.90;27.50;;;;;;;0.36;69.88;99175.05;106094;1274;97890;-72
2022/02/03 17:17:49;;;;;;;53.90;26.60;;;;;;;0.36;69.69;99168.98;106065;1274;111462;-70
2022/02/03 17:20:27;;;;;;;58.10;28.50;;;;;;;0.34;69.77;99164.15;106101;1274;96293;-71
2022/02/03 17:23:00;;;;;;;61.10;31.20;;;;;;;0.31;69.75;99162.83;106092;1274;107593;-68
2022/02/03 17:30:36;;;;;;;67.70;34.50;;;;;;;0.24;69.75;99154.98;106089;1274;111465;-69
2022/02/03 18:32:55;;;;;;;45.60;23.30;;;;;;;0.14;70.20;99103.67;105990;1276;97878;-73
2022/02/03 18:52:18;;;;;;;57.90;30.50;;;;;;;0.02;69.97;99096.67;105886;1276;111438;-72
2022/02/03 18:55:05;;;;;;;67.20;31.40;;;;;;;-0.05;69.99;99095.33;105971;1276;95893;-71
2022/02/03 18:57:51;;;;;;;57.70;29.10;;;;;;;-0.11;69.98;99092.17;106011;1276;107720;-72
2022/02/03 19:25:03;;;;;;;44.80;22.10;;;;;;;-0.13;70.14;99090.34;105955;1276;106512;-71
2022/02/03 19:27:51;;;;;;;84.90;46.10;;;;;;;-0.14;70.06;99088.09;105918;1276;97990;-71
2022/02/03 20:04:01;;;;;;;31.40;13.70;;;;;;;-0.03;70.14;99069.29;105909;1276;98004;-70
2022/02/03 20:06:43;;;;;;;35.10;13.50;;;;;;;-0.03;70.19;99068.75;105731;1275;107796;-70
2022/02/03 20:09:31;;;;;;;31.50;14.20;;;;;;;-0.02;70.27;99068.55;105833;1276;97954;-71
2022/02/03 20:12:02;;;;;;;32.40;13.70;;;;;;;0.01;70.18;99067.08;105881;1274;95894;-74
2022/02/03 20:14:30;;;;;;;32.00;13.40;;;;;;;0.03;70.22;99061.27;105972;1274;112876;-74
2022/02/03 20:16:58;;;;;;;33.30;13.30;;;;;;;0.04;70.19;99057.39;105920;1274;97837;-71
2022/02/03 20:19:25;;;;;;;33.90;15.00;;;;;;;0.06;70.17;99059.09;105981;1274;107432;-71
2022/02/03 20:21:54;;;;;;;33.50;13.40;;;;;;;0.08;70.12;99058.33;105977;1274;97982;-71
2022/02/03 20:24:22;;;;;;;33.00;13.10;;;;;;;0.09;70.24;99058.30;106035;1274;96544;-74
2022/02/03 20:26:49;;;;;;;34.50;12.60;;;;;;;0.09;70.12;99051.14;106073;1274;111359;-73
2022/02/03 20:29:17;;;;;;;32.50;11.80;;;;;;;0.09;70.18;99047.98;105996;1274;95964;-71
2022/02/03 20:31:45;;;;;;;29.50;12.00;;;;;;;0.10;70.07;99046.08;105912;1273;107648;-72
2022/02/03 20:34:14;;;;;;;25.90;11.00;;;;;;;0.11;70.09;99045.00;106004;1274;97933;-72
2022/02/03 20:36:42;;;;;;;29.20;11.40;;;;;;;0.12;70.24;99040.42;105899;1274;97956;-70
2022/02/03 20:39:09;;;;;;;31.10;12.50;;;;;;;0.12;70.09;99036.08;105953;1274;111084;-71
2022/02/03 20:41:37;;;;;;;32.90;13.00;;;;;;;0.12;70.05;99033.62;106072;1274;98030;-72
2022/02/03 20:44:05;;;;;;;27.80;10.80;;;;;;;0.13;70.21;99030.63;106001;1274;107764;-72
2022/02/03 20:46:35;;;;;;;32.40;12.80;;;;;;;0.13;70.05;99026.28;105967;1274;97869;-73
2022/02/03 20:49:09;;;;;;;31.60;12.90;;;;;;;0.12;70.25;99027.49;106049;1274;97956;-70
2022/02/03 20:51:37;;;;;;;32.30;13.30;;;;;;;0.12;70.00;99026.13;106138;1274;111175;-70
2022/02/03 20:54:05;;;;;;;31.70;11.70;;;;;;;0.12;70.14;99025.27;106110;1274;97947;-72
2022/02/03 20:56:33;;;;;;;29.50;10.90;;;;;;;0.13;70.14;99022.42;106113;1274;109844;-73
2022/02/03 20:59:05;;;;;;;30.30;11.20;;;;;;;0.12;70.11;99019.14;106078;1274;98008;-72
2022/02/03 21:01:35;;;;;;;26.90;9.90;;;;;;;0.12;70.07;99014.60;106079;1274;96974;-71
2022/02/03 21:04:10;;;;;;;25.00;9.90;;;;;;;0.12;70.06;99007.64;106048;1274;110548;-72
2022/02/03 21:06:38;;;;;;;24.30;9.90;;;;;;;0.09;70.02;99004.41;106025;1274;98266;-72
2022/02/03 21:09:08;;;;;;;25.30;10.20;;;;;;;0.08;70.02;99000.95;106083;1273;107763;-71
2022/02/03 21:11:36;;;;;;;27.40;9.80;;;;;;;0.08;69.88;98997.50;106056;1273;97890;-72
2022/02/03 21:14:09;;;;;;;25.80;10.20;;;;;;;0.07;69.92;98995.42;106062;1274;97960;-71
2022/02/03 21:16:38;;;;;;;27.60;10.40;;;;;;;0.05;69.93;98990.77;105995;1274;111459;-71
2022/02/03 21:19:06;;;;;;;24.90;10.10;;;;;;;0.05;70.01;98991.30;106132;1274;95378;-70
2022/02/03 21:21:34;;;;;;;25.70;10.40;;;;;;;0.05;69.94;98987.98;106100;1274;107783;-72
2022/02/03 21:24:02;;;;;;;25.80;9.60;;;;;;;0.05;69.95;98991.98;106029;1274;97967;-72
2022/02/03 21:26:37;;;;;;;25.90;8.50;;;;;;;0.05;70.06;98990.07;106130;1274;98089;-71
2022/02/03 21:29:06;;;;;;;25.40;10.20;;;;;;;0.05;69.95;98995.11;106079;1274;111463;-72
2022/02/03 21:31:34;;;;;;;25.30;9.40;;;;;;;0.06;69.86;98992.84;106128;1274;97897;-72
2022/02/03 21:34:02;;;;;;;24.70;8.70;;;;;;;0.05;69.87;98994.77;105961;1274;106402;-73
2022/02/03 21:36:36;;;;;;;26.10;10.00;;;;;;;0.05;69.76;98998.96;106096;1274;98621;-72
2022/02/03 21:39:04;;;;;;;27.60;11.10;;;;;;;0.04;69.79;98998.11;106066;1272;97990;-73
2022/02/03 21:41:32;;;;;;;22.90;9.40;;;;;;;0.03;69.81;98994.84;106073;1274;111368;-73
2022/02/03 21:44:01;;;;;;;26.30;10.60;;;;;;;0.03;69.83;98990.80;106076;1274;98993;-73
2022/02/03 21:46:29;;;;;;;27.80;11.40;;;;;;;0.03;69.78;98992.91;106049;1274;107593;-73
2022/02/03 21:48:56;;;;;;;48.00;25.00;;;;;;;0.01;69.77;98988.45;106104;1274;97956;-72
2022/02/03 21:51:27;;;;;;;31.00;15.20;;;;;;;-0.01;69.71;98989.91;106174;1274;97937;-72
2022/02/03 21:53:55;;;;;;;29.10;12.40;;;;;;;-0.03;69.68;98987.89;106170;1274;111397;-71
2022/02/03 21:56:24;;;;;;;32.20;13.50;;;;;;;-0.06;69.51;98985.20;106156;1274;97904;-70
2022/02/03 21:58:52;;;;;;;34.00;13.90;;;;;;;-0.13;69.41;98987.66;106102;1274;107871;-71
2022/02/03 22:01:22;;;;;;;36.20;13.90;;;;;;;-0.21;69.41;98988.40;106101;1274;95216;-70
2022/02/03 22:03:53;;;;;;;36.60;13.70;;;;;;;-0.25;69.31;98989.41;106181;1274;97856;-69
2022/02/03 22:06:21;;;;;;;35.00;15.20;;;;;;;-0.29;69.39;98987.10;106105;1274;111421;-71
2022/02/03 22:08:49;;;;;;;38.70;16.10;;;;;;;-0.33;69.34;98988.75;106109;1274;97886;-72
2022/02/03 22:11:17;;;;;;;36.80;14.40;;;;;;;-0.34;69.36;98988.79;106018;1274;107472;-72
2022/02/03 22:13:44;;;;;;;36.50;15.50;;;;;;;-0.35;69.28;98986.73;106099;1274;97754;-71
2022/02/03 22:16:20;;;;;;;32.40;13.00;;;;;;;-0.35;69.32;98985.34;106192;1274;98579;-70
2022/02/03 22:18:48;;;;;;;28.10;11.00;;;;;;;-0.34;69.51;98989.48;106127;1274;111381;-70
2022/02/03 22:22:07;;;;;;;32.40;12.90;;;;;;;-0.32;69.50;98984.55;106050;1274;97876;-72
2022/02/03 22:24:26;;;;;;;28.30;11.10;;;;;;;-0.32;69.46;98987.49;106004;1274;107711;-72
2022/02/03 22:43:49;;;;;;;27.70;9.30;;;;;;;-0.29;69.41;98975.22;105727;1280;97995;-72
2022/02/03 22:49:02;;;;;;;23.80;10.10;;;;;;;-0.27;69.44;98971.16;106049;1274;97973;-71
2022/02/03 22:51:41;;;;;;;24.70;9.30;;;;;;;-0.26;69.45;98965.04;106105;1274;107758;-72
2022/02/03 22:54:10;;;;;;;23.50;8.90;;;;;;;-0.26;69.34;98964.33;106052;1274;97937;-71
2022/02/03 22:56:40;;;;;;;21.90;8.60;;;;;;;-0.26;69.25;98963.11;106071;1274;98495;-73
2022/02/03 23:01:37;;;;;;;19.60;7.10;;;;;;;-0.28;68.90;98963.16;106127;1274;97910;-71
2022/02/03 23:04:05;;;;;;;17.50;6.70;;;;;;;-0.29;68.82;98963.90;106092;1274;107785;-73
2022/02/03 23:06:33;;;;;;;18.60;7.10;;;;;;;-0.32;68.74;98956.33;106020;1274;97974;-72
2022/02/03 23:09:07;;;;;;;18.50;7.90;;;;;;;-0.34;68.92;98957.26;106143;1274;97870;-70
2022/02/03 23:19:41;;;;;;;21.40;7.40;;;;;;;-0.43;68.76;98947.41;105968;1275;97869;-71